Time;durP1;ratioP1;P1;durP2;ratioP2;P2;SDS_P1;SDS_P2;PMS_P1;PMS_P2;Temp;Humidity;BMP_temperature;BMP_pressure;BME280_temperature;BME280_humidity;BME280_pressure;Samples;Min_cycle;Max_cycle;Signal;HPM_P1;HPM_P2
2024/03/25 00:01:01;;;;;;;8.47;2.40;;;6.80;99.90;;;;;;5117970;28;20184;-40
2024/03/25 00:03:27;;;;;;;4.00;2.80;;;6.80;99.90;;;;;;5117720;28;20183;-41
2024/03/25 00:05:52;;;;;;;4.30;2.70;;;6.80;99.90;;;;;;5117044;28;20187;-40
2024/03/25 00:08:19;;;;;;;2.93;2.13;;;6.80;99.90;;;;;;5117582;28;20184;-40
2024/03/25 00:10:45;;;;;;;4.03;2.93;;;6.80;99.90;;;;;;5116194;28;20227;-41
2024/03/25 00:13:25;;;;;;;7.67;2.63;;;6.80;99.90;;;;;;5121112;28;20771;-40
2024/03/25 00:15:51;;;;;;;3.20;2.40;;;6.80;99.90;;;;;;5103254;28;20437;-39
2024/03/25 00:18:17;;;;;;;2.90;2.47;;;6.80;99.90;;;;;;5103203;28;20252;-40
2024/03/25 00:20:43;;;;;;;4.03;2.70;;;6.70;99.90;;;;;;5103416;28;20186;-40
2024/03/25 00:23:09;;;;;;;4.17;2.80;;;6.70;99.90;;;;;;5086450;28;20540;-41
2024/03/25 00:25:35;;;;;;;3.97;2.03;;;6.70;99.90;;;;;;5120571;28;20794;-40
2024/03/25 00:28:00;;;;;;;3.17;2.20;;;6.70;99.90;;;;;;5103029;28;20228;-39
2024/03/25 00:30:27;;;;;;;3.63;2.37;;;6.60;99.90;;;;;;5103597;28;20451;-40
2024/03/25 00:32:53;;;;;;;3.90;2.40;;;6.60;99.90;;;;;;5120422;28;20250;-41
2024/03/25 00:35:19;;;;;;;3.70;2.23;;;6.60;1.00;;;;;;5086472;28;20456;-39
2024/03/25 00:37:45;;;;;;;4.20;2.47;;;6.50;1.00;;;;;;5102264;28;20232;-41
2024/03/25 00:40:11;;;;;;;4.47;2.63;;;6.50;1.00;;;;;;5103263;28;20172;-40
2024/03/25 00:42:37;;;;;;;3.53;2.40;;;6.50;1.00;;;;;;5121171;28;20886;-41
2024/03/25 00:45:05;;;;;;;5.03;2.67;;;6.50;1.00;;;;;;5121219;28;20606;-42
2024/03/25 00:47:31;;;;;;;3.67;2.57;;;6.50;1.00;;;;;;5103188;28;20433;-41
2024/03/25 00:49:57;;;;;;;3.50;3.13;;;6.50;1.00;;;;;;5102652;28;20684;-41
2024/03/25 00:52:22;;;;;;;2.73;2.47;;;6.50;1.00;;;;;;5102935;28;20454;-40
2024/03/25 00:54:48;;;;;;;5.20;2.90;;;6.50;1.00;;;;;;5102251;28;20180;-40
2024/03/25 00:57:14;;;;;;;6.17;3.20;;;6.40;1.00;;;;;;5119935;28;20502;-40
2024/03/25 00:59:40;;;;;;;4.47;3.00;;;6.40;1.00;;;;;;5120891;28;20301;-41
2024/03/25 01:02:05;;;;;;;4.53;3.40;;;6.50;1.00;;;;;;5102368;28;20180;-39
2024/03/25 01:04:31;;;;;;;3.90;3.13;;;6.40;1.00;;;;;;5102153;28;20257;-40
2024/03/25 01:06:57;;;;;;;3.97;3.00;;;6.40;1.00;;;;;;5101836;28;20180;-40
2024/03/25 01:09:22;;;;;;;4.03;2.97;;;6.40;1.00;;;;;;5120023;28;20322;-40
2024/03/25 01:11:48;;;;;;;5.53;2.30;;;6.50;1.00;;;;;;5119803;28;20183;-38
2024/03/25 01:14:14;;;;;;;4.10;2.57;;;6.40;1.00;;;;;;5119371;28;20653;-37
2024/03/25 01:16:39;;;;;;;3.00;2.37;;;6.40;1.00;;;;;;5119849;28;20592;-41
2024/03/25 01:19:05;;;;;;;3.30;2.87;;;6.40;1.00;;;;;;5120076;28;20581;-41
2024/03/25 01:21:30;;;;;;;4.10;2.30;;;6.40;1.00;;;;;;5119789;28;20176;-38
2024/03/25 01:23:56;;;;;;;4.60;2.77;;;6.40;1.00;;;;;;5119373;28;20187;-43
2024/03/25 01:26:23;;;;;;;4.23;2.90;;;6.40;1.00;;;;;;5119661;28;20215;-40
2024/03/25 01:28:49;;;;;;;4.57;2.57;;;6.40;1.00;;;;;;5119785;28;20303;-38
2024/03/25 01:31:14;;;;;;;5.03;2.10;;;6.50;99.90;;;;;;5118041;28;20816;-38
2024/03/25 01:33:40;;;;;;;6.40;2.40;;;7.30;1.00;;;;;;5118758;28;20215;-38
2024/03/25 01:36:06;;;;;;;2.70;2.10;;;8.30;1.00;;;;;;5119198;28;20304;-36
2024/03/25 01:38:32;;;;;;;4.70;2.33;;;9.20;1.00;;;;;;5101655;28;20168;-37
2024/03/25 01:41:08;;;;;;;6.20;2.00;;;10.00;99.90;;;;;;5119104;28;20414;-40
2024/03/25 01:43:34;;;;;;;2.93;2.20;;;10.80;1.00;;;;;;5102117;28;20401;-41
2024/03/25 01:45:59;;;;;;;4.80;2.80;;;11.10;1.00;;;;;;5118765;28;20417;-41
2024/03/25 01:48:25;;;;;;;4.53;2.77;;;11.00;1.00;;;;;;5119143;28;20188;-41
2024/03/25 01:50:51;;;;;;;3.40;2.33;;;10.50;1.00;;;;;;5119340;28;20180;-39
2024/03/25 01:53:16;;;;;;;3.67;3.27;;;10.00;1.00;;;;;;5101424;28;20214;-39
2024/03/25 01:55:42;;;;;;;4.53;2.40;;;9.50;1.00;;;;;;5119411;28;20469;-42
2024/03/25 01:58:08;;;;;;;3.57;2.47;;;9.10;99.90;;;;;;5118930;28;20179;-38
2024/03/25 02:00:35;;;;;;;3.10;2.57;;;8.70;99.90;;;;;;5119397;28;20562;-39
2024/03/25 02:03:00;;;;;;;3.50;2.53;;;8.40;1.00;;;;;;5119556;28;20968;-41
2024/03/25 02:05:26;;;;;;;4.03;2.90;;;8.10;99.90;;;;;;5101247;28;20409;-42
2024/03/25 02:07:52;;;;;;;3.67;2.77;;;7.90;1.00;;;;;;5119176;28;20190;-40
2024/03/25 02:10:18;;;;;;;3.67;3.17;;;7.80;99.90;;;;;;5118796;28;20219;-40
2024/03/25 02:12:44;;;;;;;4.90;3.33;;;7.70;1.00;;;;;;5118278;28;20541;-39
2024/03/25 02:15:11;;;;;;;5.77;3.10;;;7.50;1.00;;;;;;5100411;28;20176;-39
2024/03/25 02:17:37;;;;;;;5.00;2.97;;;7.50;99.90;;;;;;5117808;28;20422;-39
2024/03/25 02:20:05;;;;;;;5.07;3.10;;;7.40;1.00;;;;;;5118052;28;20478;-40
2024/03/25 02:22:31;;;;;;;4.20;3.70;;;7.30;1.00;;;;;;5118114;28;20413;-39
2024/03/25 02:24:57;;;;;;;3.10;2.70;;;7.20;99.90;;;;;;5100248;28;20421;-41
2024/03/25 02:27:30;;;;;;;4.17;3.40;;;7.10;99.90;;;;;;5116626;28;20765;-41
2024/03/25 02:30:02;;;;;;;4.40;3.37;;;7.10;1.00;;;;;;5100868;28;20867;-40
2024/03/25 02:32:29;;;;;;;3.27;2.83;;;7.00;1.00;;;;;;5117465;28;20858;-39
2024/03/25 02:34:55;;;;;;;3.90;3.43;;;7.00;1.00;;;;;;5117233;28;20541;-42
2024/03/25 02:37:20;;;;;;;3.70;2.97;;;6.90;49.80;;;;;;5100654;28;20410;-39
2024/03/25 02:39:46;;;;;;;5.43;2.70;;;6.90;99.90;;;;;;5118417;28;20190;-40
2024/03/25 02:42:12;;;;;;;4.90;3.30;;;6.90;99.90;;;;;;5117761;28;20257;-39
2024/03/25 02:44:37;;;;;;;5.13;3.73;;;6.80;99.90;;;;;;5117486;28;20192;-40
2024/03/25 02:47:04;;;;;;;4.97;3.13;;;6.80;99.90;;;;;;5117188;28;20176;-39
2024/03/25 02:49:29;;;;;;;2.90;2.40;;;6.80;99.90;;;;;;5098864;28;20217;-41
2024/03/25 02:51:55;;;;;;;5.60;3.17;;;6.80;99.90;;;;;;5117153;28;20429;-40
2024/03/25 02:54:21;;;;;;;6.40;3.27;;;6.80;99.90;;;;;;5117483;28;20203;-40
2024/03/25 02:56:47;;;;;;;4.70;3.53;;;6.80;99.90;;;;;;5117259;28;20172;-39
2024/03/25 02:59:12;;;;;;;5.17;2.80;;;6.80;99.90;;;;;;5117629;28;20424;-40
2024/03/25 03:01:38;;;;;;;4.47;3.27;;;6.70;99.90;;;;;;5117675;28;20198;-39
2024/03/25 03:04:04;;;;;;;5.57;3.67;;;6.70;99.90;;;;;;5116778;28;20214;-39
2024/03/25 03:06:29;;;;;;;3.50;2.80;;;6.70;99.90;;;;;;5117932;28;20252;-39
2024/03/25 03:08:55;;;;;;;7.93;3.27;;;6.70;99.90;;;;;;5117230;28;20225;-41
2024/03/25 03:11:20;;;;;;;3.63;3.00;;;6.70;99.90;;;;;;5117700;28;20185;-40
2024/03/25 03:13:46;;;;;;;5.47;3.30;;;6.70;1.00;;;;;;5117539;28;20589;-39
2024/03/25 03:16:12;;;;;;;4.73;3.47;;;6.60;1.00;;;;;;5117123;28;20259;-41
2024/03/25 03:18:37;;;;;;;3.20;2.90;;;6.60;1.00;;;;;;5117574;28;20176;-39
2024/03/25 03:21:03;;;;;;;4.17;3.73;;;6.60;1.00;;;;;;5117675;28;20236;-40
2024/03/25 03:23:29;;;;;;;6.33;3.80;;;6.60;1.00;;;;;;5117560;28;20194;-40
2024/03/25 03:25:55;;;;;;;4.27;3.03;;;6.60;1.00;;;;;;5117710;28;20533;-40
2024/03/25 03:28:20;;;;;;;3.83;3.17;;;6.60;1.00;;;;;;5116155;28;20530;-39
2024/03/25 03:30:46;;;;;;;3.50;3.17;;;6.60;1.00;;;;;;5116081;28;20436;-41
2024/03/25 03:33:12;;;;;;;6.60;3.20;;;6.50;1.00;;;;;;5098062;28;20306;-40
2024/03/25 03:35:37;;;;;;;5.90;3.60;;;6.50;1.00;;;;;;5098170;28;20191;-41
2024/03/25 03:38:03;;;;;;;3.30;2.87;;;6.50;1.00;;;;;;5116051;28;20213;-38
2024/03/25 03:40:29;;;;;;;3.80;3.07;;;6.50;1.00;;;;;;5115762;28;20160;-40
2024/03/25 03:42:55;;;;;;;3.63;3.20;;;6.50;1.00;;;;;;5095314;28;20180;-39
2024/03/25 03:45:23;;;;;;;4.10;3.00;;;6.50;1.00;;;;;;5096801;28;20430;-39
2024/03/25 03:47:49;;;;;;;5.37;3.10;;;6.50;1.00;;;;;;5100098;28;20476;-39
2024/03/25 03:50:15;;;;;;;4.23;3.07;;;6.50;1.00;;;;;;5100912;28;20468;-39
2024/03/25 03:52:40;;;;;;;4.00;3.60;;;6.50;1.00;;;;;;5100364;28;20274;-38
2024/03/25 03:55:06;;;;;;;4.27;3.50;;;6.50;1.00;;;;;;5100157;28;20204;-39
2024/03/25 03:57:32;;;;;;;6.03;3.50;;;6.50;1.00;;;;;;5101209;28;20229;-39
2024/03/25 03:59:58;;;;;;;4.30;2.90;;;6.50;1.00;;;;;;5101575;28;20414;-39
2024/03/25 04:02:24;;;;;;;3.40;2.90;;;6.50;1.00;;;;;;5101036;28;20581;-39
2024/03/25 04:04:51;;;;;;;4.50;3.00;;;6.50;1.00;;;;;;5101295;28;20172;-41
2024/03/25 04:07:17;;;;;;;3.60;2.97;;;6.50;1.00;;;;;;5099606;28;20422;-39
2024/03/25 04:09:43;;;;;;;3.90;3.40;;;6.50;1.00;;;;;;5100019;28;20416;-40
2024/03/25 04:12:08;;;;;;;5.60;3.10;;;6.50;1.00;;;;;;5098800;28;20414;-39
2024/03/25 04:14:34;;;;;;;4.20;3.13;;;6.40;1.00;;;;;;5098806;28;20300;-39
2024/03/25 04:17:00;;;;;;;3.70;3.30;;;6.40;1.00;;;;;;5099111;28;20176;-41
2024/03/25 04:19:27;;;;;;;6.03;3.40;;;6.40;1.00;;;;;;5098719;28;20180;-41
2024/03/25 04:21:53;;;;;;;3.43;3.10;;;6.50;1.00;;;;;;5099311;28;20209;-39
2024/03/25 04:24:19;;;;;;;5.23;3.13;;;6.50;1.00;;;;;;5099794;28;20426;-42
2024/03/25 04:26:45;;;;;;;3.83;3.07;;;6.50;1.00;;;;;;5099278;28;20533;-39
2024/03/25 04:29:11;;;;;;;4.60;3.20;;;6.50;1.00;;;;;;5100409;28;20200;-39
2024/03/25 04:31:37;;;;;;;4.67;3.17;;;6.50;1.00;;;;;;5099919;28;20437;-38
2024/03/25 04:34:04;;;;;;;4.17;3.00;;;6.40;1.00;;;;;;5100449;28;20212;-39
2024/03/25 04:36:30;;;;;;;3.20;2.90;;;6.40;1.00;;;;;;5099511;28;20500;-39
2024/03/25 04:38:56;;;;;;;4.03;2.90;;;6.40;1.00;;;;;;5081589;28;20832;-39
2024/03/25 04:41:21;;;;;;;4.63;2.70;;;6.40;1.00;;;;;;5081697;28;20485;-39
2024/03/25 04:43:47;;;;;;;3.10;2.80;;;6.40;1.00;;;;;;5098751;28;20247;-39
2024/03/25 04:46:12;;;;;;;3.47;2.60;;;6.40;1.00;;;;;;5098872;28;20330;-38
2024/03/25 04:48:38;;;;;;;5.20;3.47;;;6.40;99.90;;;;;;5098337;28;20242;-40
2024/03/25 04:51:04;;;;;;;5.90;3.43;;;6.40;99.90;;;;;;5098443;28;20180;-39
2024/03/25 04:53:30;;;;;;;8.27;3.83;;;6.40;99.90;;;;;;5097873;28;20212;-39
2024/03/25 04:55:55;;;;;;;4.27;3.87;;;6.40;99.90;;;;;;5096485;28;20513;-40
2024/03/25 04:58:21;;;;;;;2.97;2.60;;;6.40;1.00;;;;;;5079420;28;20521;-39
2024/03/25 05:00:46;;;;;;;3.30;2.87;;;6.30;1.00;;;;;;5098772;28;20168;-39
2024/03/25 05:03:12;;;;;;;4.47;3.13;;;6.30;1.00;;;;;;5100053;28;20562;-39
2024/03/25 05:05:38;;;;;;;3.83;2.67;;;6.30;1.00;;;;;;5080694;28;20183;-39
2024/03/25 05:08:03;;;;;;;3.10;2.80;;;6.30;1.00;;;;;;5099199;28;20273;-39
2024/03/25 05:10:29;;;;;;;4.57;3.40;;;6.30;1.00;;;;;;5099662;28;20345;-39
2024/03/25 05:12:55;;;;;;;3.63;3.20;;;6.20;1.00;;;;;;5097695;28;20462;-39
2024/03/25 05:15:21;;;;;;;3.83;2.90;;;6.20;1.00;;;;;;5098403;28;20422;-41
2024/03/25 05:17:46;;;;;;;5.03;3.17;;;6.20;1.00;;;;;;5099658;28;20176;-39
2024/03/25 05:20:12;;;;;;;6.57;3.60;;;6.20;1.00;;;;;;5097876;28;20211;-39
2024/03/25 05:22:38;;;;;;;6.50;3.57;;;6.20;1.00;;;;;;5100140;28;20253;-39
2024/03/25 05:25:04;;;;;;;4.50;3.80;;;6.20;1.00;;;;;;5097838;28;20442;-39
2024/03/25 05:27:29;;;;;;;5.87;3.77;;;6.20;1.00;;;;;;5080018;28;20279;-38
2024/03/25 05:29:55;;;;;;;6.60;3.90;;;6.20;1.00;;;;;;5080493;28;20441;-38
2024/03/25 05:32:21;;;;;;;4.47;3.67;;;6.20;1.00;;;;;;5064780;28;20191;-39
2024/03/25 05:34:48;;;;;;;4.70;3.73;;;6.20;1.00;;;;;;5096880;28;20241;-39
2024/03/25 05:37:14;;;;;;;5.60;4.50;;;6.30;1.00;;;;;;5095519;28;20426;-40
2024/03/25 05:39:39;;;;;;;5.63;4.63;;;6.30;1.00;;;;;;5096577;28;20463;-40
2024/03/25 05:42:05;;;;;;;6.93;4.33;;;6.30;1.00;;;;;;5095520;28;20455;-40
2024/03/25 05:44:31;;;;;;;7.93;4.77;;;6.40;1.00;;;;;;5094923;28;20573;-39
2024/03/25 05:46:57;;;;;;;5.50;4.40;;;6.40;1.00;;;;;;5095724;28;20434;-40
2024/03/25 05:49:23;;;;;;;6.07;4.90;;;6.40;1.00;;;;;;5095983;28;20184;-40
2024/03/25 05:51:48;;;;;;;4.30;3.50;;;6.40;1.00;;;;;;5096387;28;20407;-41
2024/03/25 05:54:14;;;;;;;3.17;2.87;;;6.40;99.90;;;;;;5097404;28;20904;-39
2024/03/25 05:56:40;;;;;;;3.90;3.33;;;6.50;99.90;;;;;;5096643;28;20176;-40
2024/03/25 05:59:05;;;;;;;3.73;3.30;;;6.50;99.90;;;;;;5095321;28;20187;-38
2024/03/25 06:01:31;;;;;;;7.90;4.40;;;6.50;99.90;;;;;;5093406;28;20484;-39
2024/03/25 06:03:57;;;;;;;5.03;3.60;;;6.50;99.90;;;;;;5093602;28;20172;-41
2024/03/25 06:06:23;;;;;;;5.53;3.93;;;6.60;99.90;;;;;;5092403;28;20267;-39
2024/03/25 06:08:50;;;;;;;7.10;3.77;;;6.60;99.90;;;;;;5074511;28;20986;-39
2024/03/25 06:11:17;;;;;;;5.30;3.17;;;6.60;99.90;;;;;;5093087;28;20525;-39
2024/03/25 06:13:45;;;;;;;7.00;4.03;;;6.70;99.90;;;;;;5092081;28;20470;-39
2024/03/25 06:16:12;;;;;;;7.10;4.70;;;6.70;99.90;;;;;;5090109;28;20418;-39
2024/03/25 06:18:37;;;;;;;5.67;4.53;;;6.80;65.90;;;;;;5092327;28;20410;-41
2024/03/25 06:21:03;;;;;;;5.40;4.80;;;6.80;1.00;;;;;;5093793;28;20423;-39
2024/03/25 06:23:29;;;;;;;4.90;4.13;;;6.90;1.00;;;;;;5094704;28;20196;-38
2024/03/25 06:25:56;;;;;;;5.97;4.00;;;6.90;1.00;;;;;;5094733;28;20176;-39
2024/03/25 06:28:22;;;;;;;9.30;4.17;;;7.00;1.00;;;;;;5096259;28;20181;-42
2024/03/25 06:36:18;;;;;;;5.33;4.30;;;7.10;23.10;;;;;;5094972;28;20417;-40
2024/03/25 06:38:44;;;;;;;5.13;4.03;;;7.20;1.00;;;;;;5090735;28;20495;-40
2024/03/25 06:41:10;;;;;;;9.00;5.07;;;7.30;1.00;;;;;;5091251;28;20521;-39
2024/03/25 06:43:37;;;;;;;8.70;5.20;;;7.30;1.00;;;;;;5092367;28;20236;-40
2024/03/25 06:46:03;;;;;;;6.63;4.43;;;7.40;99.90;;;;;;5095014;28;20192;-40
2024/03/25 06:48:29;;;;;;;10.83;7.80;;;7.40;99.90;;;;;;5095962;28;20817;-39
2024/03/25 06:50:59;;;;;;;7.27;6.30;;;7.50;1.00;;;;;;5078416;28;20426;-40
2024/03/25 06:53:25;;;;;;;5.50;4.93;;;7.60;1.00;;;;;;5095689;28;20218;-39
2024/03/25 06:55:58;;;;;;;6.67;4.80;;;7.70;99.90;;;;;;5094649;28;20477;-40
2024/03/25 06:58:25;;;;;;;5.37;4.23;;;7.80;27.10;;;;;;5095243;28;20717;-40
2024/03/25 07:00:51;;;;;;;6.67;3.87;;;8.00;1.00;;;;;;5076889;28;20965;-41
2024/03/25 07:03:18;;;;;;;4.10;3.30;;;8.20;99.90;;;;;;5096397;28;20717;-40
2024/03/25 07:05:47;;;;;;;5.97;4.10;;;8.40;85.30;;;;;;5095421;28;20430;-39
2024/03/25 07:08:13;;;;;;;4.40;3.20;;;8.50;1.00;;;;;;5094292;28;20435;-41
2024/03/25 07:10:42;;;;;;;5.60;3.60;;;8.70;99.90;;;;;;5094763;28;20472;-41
2024/03/25 07:13:08;;;;;;;6.07;3.60;;;8.80;99.90;;;;;;5094744;28;20469;-41
2024/03/25 07:15:34;;;;;;;3.63;3.33;;;8.90;1.00;;;;;;5095527;28;20406;-39
2024/03/25 07:17:59;;;;;;;4.77;3.67;;;9.00;1.00;;;;;;5076708;28;20184;-39
2024/03/25 07:20:26;;;;;;;5.23;2.73;;;9.10;1.00;;;;;;5096753;28;20180;-40
2024/03/25 07:22:55;;;;;;;5.63;3.00;;;9.10;99.90;;;;;;5101082;28;20562;-41
2024/03/25 07:25:21;;;;;;;4.17;3.00;;;9.20;99.90;;;;;;5100301;28;20430;-41
2024/03/25 07:27:47;;;;;;;6.80;3.50;;;9.40;99.90;;;;;;5081419;28;20486;-39
2024/03/25 07:30:13;;;;;;;5.50;3.43;;;9.70;99.90;;;;;;5079582;28;20612;-41
2024/03/25 07:32:38;;;;;;;3.33;2.93;;;10.10;99.90;;;;;;5098730;28;20184;-39
2024/03/25 07:35:04;;;;;;;4.10;2.67;;;10.50;99.90;;;;;;5099182;28;20250;-39
2024/03/25 07:37:30;;;;;;;4.33;2.87;;;10.80;1.00;;;;;;5099821;28;20325;-39
2024/03/25 07:39:56;;;;;;;4.70;2.93;;;11.20;1.00;;;;;;5098089;28;20418;-40
2024/03/25 07:42:22;;;;;;;4.23;2.33;;;11.60;1.00;;;;;;5097407;28;20414;-40
2024/03/25 07:44:47;;;;;;;4.20;3.13;;;11.90;99.90;;;;;;5077320;28;20315;-41
2024/03/25 07:47:13;;;;;;;4.40;2.53;;;12.30;99.90;;;;;;5079663;28;20181;-41
2024/03/25 07:49:39;;;;;;;3.47;2.87;;;12.60;99.90;;;;;;5080531;28;20181;-42
2024/03/25 07:52:05;;;;;;;2.90;2.50;;;12.90;99.90;;;;;;5079569;28;20559;-42
2024/03/25 07:54:31;;;;;;;4.73;3.10;;;13.20;83.00;;;;;;5079424;28;20502;-41
2024/03/25 07:56:57;;;;;;;5.60;3.37;;;13.40;29.80;;;;;;5077963;28;20659;-42
2024/03/25 07:59:23;;;;;;;3.70;2.87;;;13.70;4.40;;;;;;5076315;28;20180;-42
2024/03/25 08:01:48;;;;;;;6.37;2.70;;;14.00;1.00;;;;;;5075248;28;20169;-41
2024/03/25 08:04:14;;;;;;;4.83;3.30;;;14.30;1.00;;;;;;5076764;28;20209;-43
2024/03/25 08:06:40;;;;;;;3.70;3.00;;;14.60;1.00;;;;;;5075202;28;20548;-42
2024/03/25 08:09:05;;;;;;;4.00;2.70;;;14.90;1.00;;;;;;5076149;28;20185;-42
2024/03/25 08:11:32;;;;;;;4.90;3.43;;;15.20;1.00;;;;;;5077096;28;20323;-43
2024/03/25 08:13:57;;;;;;;4.53;2.80;;;15.40;1.00;;;;;;5061696;28;20298;-41
2024/03/25 08:16:23;;;;;;;4.03;2.90;;;15.70;1.00;;;;;;5079074;28;20828;-41
2024/03/25 08:18:48;;;;;;;5.13;2.37;;;16.00;1.00;;;;;;5078519;28;20177;-41
2024/03/25 08:21:16;;;;;;;3.73;2.67;;;16.20;1.00;;;;;;5079279;28;20228;-40
2024/03/25 08:23:45;;;;;;;3.40;2.50;;;16.60;1.00;;;;;;5078004;28;20181;-44
2024/03/25 08:26:10;;;;;;;2.23;1.00;;;16.90;1.00;;;;;;5075066;28;20639;-43
2024/03/25 08:28:36;;;;;;;5.47;1.80;;;17.90;99.90;;;;;;5077727;28;20419;-44
2024/03/25 08:31:02;;;;;;;5.57;1.40;;;18.80;99.90;;;;;;5078251;28;20261;-46
2024/03/25 08:33:28;;;;;;;8.87;2.57;;;19.60;60.00;;;;;;5077631;28;20563;-43
2024/03/25 08:35:54;;;;;;;5.83;1.47;;;20.30;1.00;;;;;;5076981;28;20173;-44
2024/03/25 08:38:19;;;;;;;2.53;1.20;;;20.90;1.00;;;;;;5077057;28;20465;-43
2024/03/25 08:40:45;;;;;;;5.70;1.60;;;21.30;1.00;;;;;;5075708;28;20193;-43
2024/03/25 08:43:11;;;;;;;5.13;1.20;;;21.80;1.00;;;;;;5080371;28;20213;-45
2024/03/25 08:45:36;;;;;;;3.10;1.37;;;22.20;1.00;;;;;;5078685;28;20547;-42
2024/03/25 08:48:02;;;;;;;4.17;1.40;;;22.50;1.00;;;;;;5094302;28;20180;-42
2024/03/25 08:50:27;;;;;;;6.90;1.57;;;22.90;1.00;;;;;;5094689;28;20176;-41
2024/03/25 08:52:54;;;;;;;3.60;1.50;;;23.20;1.00;;;;;;5095585;28;20223;-40
2024/03/25 08:55:19;;;;;;;3.70;1.50;;;23.50;1.00;;;;;;5096131;28;20565;-41
2024/03/25 08:57:45;;;;;;;1.97;1.50;;;23.80;1.00;;;;;;5092582;28;20406;-42
2024/03/25 09:00:12;;;;;;;2.50;1.60;;;24.10;1.00;;;;;;5096222;28;20177;-42
2024/03/25 09:02:37;;;;;;;1.70;0.90;;;24.30;1.00;;;;;;5096295;28;20185;-44
2024/03/25 09:05:05;;;;;;;2.00;1.23;;;24.40;1.00;;;;;;5097834;28;20415;-45
2024/03/25 09:07:32;;;;;;;3.10;1.37;;;24.60;1.00;;;;;;5095294;28;20198;-43
2024/03/25 09:12:42;;;;;;;2.60;1.60;;;25.10;1.00;;;;;;5081848;28;20429;-45
2024/03/25 09:15:09;;;;;;;2.47;1.23;;;25.20;1.00;;;;;;5097966;28;20711;-40
2024/03/25 09:17:35;;;;;;;4.37;1.57;;;24.80;1.00;;;;;;5097624;28;20433;-42
2024/03/25 09:20:03;;;;;;;2.97;1.20;;;24.40;1.00;;;;;;5097244;28;20770;-42
2024/03/25 09:22:29;;;;;;;2.90;1.57;;;24.00;1.00;;;;;;5095657;28;20422;-40
2024/03/25 09:24:55;;;;;;;3.70;1.20;;;23.60;1.00;;;;;;5095506;28;20427;-46
2024/03/25 09:27:20;;;;;;;3.70;1.03;;;23.30;1.00;;;;;;5095445;28;20176;-42
2024/03/25 09:29:46;;;;;;;3.73;1.20;;;23.10;1.00;;;;;;5078021;28;20466;-44
2024/03/25 09:32:12;;;;;;;3.40;1.60;;;22.80;1.00;;;;;;5095283;28;20187;-42
2024/03/25 09:34:38;;;;;;;2.43;1.30;;;22.70;1.00;;;;;;5097197;28;20207;-44
2024/03/25 09:37:04;;;;;;;3.10;1.57;;;22.50;1.00;;;;;;5076584;28;20461;-44
2024/03/25 09:39:30;;;;;;;2.27;1.00;;;22.40;1.00;;;;;;5096634;28;20562;-44
2024/03/25 09:41:58;;;;;;;3.90;1.90;;;22.30;1.00;;;;;;5095039;28;20255;-42
2024/03/25 09:44:25;;;;;;;2.87;1.47;;;22.20;1.00;;;;;;5056198;28;20471;-41
2024/03/25 09:46:51;;;;;;;2.50;1.30;;;22.10;1.00;;;;;;5075764;28;20916;-41
2024/03/25 09:49:17;;;;;;;2.63;1.30;;;22.10;1.00;;;;;;5057481;28;20695;-46
2024/03/25 09:51:43;;;;;;;3.77;1.23;;;22.00;1.00;;;;;;5075492;28;20424;-45
2024/03/25 09:54:09;;;;;;;4.23;1.20;;;21.90;1.00;;;;;;5073888;28;20463;-42
2024/03/25 09:56:35;;;;;;;1.93;1.30;;;21.90;1.00;;;;;;5074254;28;20419;-42
2024/03/25 09:59:01;;;;;;;3.47;1.40;;;21.90;1.00;;;;;;5073928;28;20469;-46
2024/03/25 10:01:26;;;;;;;2.33;1.50;;;21.90;1.00;;;;;;5072210;28;20204;-45
2024/03/25 10:03:52;;;;;;;3.20;1.60;;;21.90;1.00;;;;;;5073248;28;20177;-45
2024/03/25 10:06:18;;;;;;;1.53;1.20;;;22.40;1.00;;;;;;5074611;28;20176;-43
2024/03/25 10:08:45;;;;;;;3.10;1.40;;;23.10;1.00;;;;;;5072803;28;20185;-42
2024/03/25 10:11:11;;;;;;;3.57;1.90;;;23.30;1.00;;;;;;5072479;28;20254;-43
2024/03/25 10:13:37;;;;;;;2.50;1.40;;;23.60;1.00;;;;;;5073912;28;20473;-42
2024/03/25 10:16:03;;;;;;;1.80;1.13;;;23.70;1.00;;;;;;5074407;28;20438;-43
2024/03/25 10:18:29;;;;;;;1.80;1.17;;;24.00;1.00;;;;;;5075883;28;20411;-43
2024/03/25 10:20:56;;;;;;;2.50;1.70;;;24.40;1.00;;;;;;5075354;28;20428;-44
2024/03/25 10:23:25;;;;;;;3.20;1.50;;;25.10;1.00;;;;;;5076070;28;20242;-44
2024/03/25 10:25:55;;;;;;;2.90;1.77;;;25.40;1.00;;;;;;5058606;28;20477;-46
2024/03/25 10:28:20;;;;;;;4.03;2.00;;;25.90;1.00;;;;;;5075099;28;20758;-45
2024/03/25 10:30:47;;;;;;;3.40;2.03;;;26.30;1.00;;;;;;5074965;28;20467;-41
2024/03/25 10:33:13;;;;;;;2.17;1.80;;;26.90;1.00;;;;;;5074533;28;20335;-42
2024/03/25 10:35:39;;;;;;;3.37;2.07;;;27.50;1.00;;;;;;5073327;28;20435;-43
2024/03/25 10:38:10;;;;;;;2.03;1.53;;;28.20;1.00;;;;;;5074577;28;20431;-42
2024/03/25 10:40:37;;;;;;;3.87;2.10;;;28.80;1.00;;;;;;5073935;28;20407;-41
2024/03/25 10:43:08;;;;;;;2.60;2.13;;;29.40;1.00;;;;;;5078092;28;20498;-42
2024/03/25 10:45:36;;;;;;;3.90;2.20;;;29.30;1.00;;;;;;5095346;28;20425;-43
2024/03/25 10:48:26;;;;;;;2.90;1.87;;;29.10;1.00;;;;;;5093682;28;20431;-43
2024/03/25 10:50:54;;;;;;;2.80;1.50;;;28.50;1.00;;;;;;5075609;28;20517;-43
2024/03/25 10:53:20;;;;;;;2.07;1.53;;;27.90;1.00;;;;;;5092863;28;20539;-42
2024/03/25 10:55:50;;;;;;;1.80;1.30;;;27.20;1.00;;;;;;5075849;28;20389;-45
2024/03/25 10:58:17;;;;;;;2.00;1.40;;;26.60;1.00;;;;;;5094750;28;20214;-45
2024/03/25 11:00:44;;;;;;;2.27;1.17;;;26.10;1.00;;;;;;5095605;28;20426;-44
2024/03/25 11:03:10;;;;;;;2.70;1.07;;;25.70;1.00;;;;;;5095939;28;20518;-43
2024/03/25 11:05:36;;;;;;;2.47;1.33;;;25.30;1.00;;;;;;5095441;28;20674;-44
2024/03/25 11:08:15;;;;;;;1.40;1.30;;;25.00;1.00;;;;;;5077426;28;20882;-43
2024/03/25 11:10:48;;;;;;;2.37;1.30;;;24.80;1.00;;;;;;5077179;28;20475;-43
2024/03/25 11:13:17;;;;;;;1.60;1.20;;;24.50;1.00;;;;;;5094222;28;20504;-46
2024/03/25 11:15:45;;;;;;;2.47;1.10;;;24.30;1.00;;;;;;5095056;28;20476;-43
2024/03/25 11:18:15;;;;;;;3.77;1.60;;;24.10;1.00;;;;;;5093599;28;20430;-45
2024/03/25 11:20:40;;;;;;;2.27;1.23;;;23.90;1.00;;;;;;5096009;28;20423;-48
2024/03/25 11:23:10;;;;;;;1.83;1.20;;;23.80;1.00;;;;;;5095807;28;20571;-46
2024/03/25 11:25:36;;;;;;;1.87;1.27;;;23.70;1.00;;;;;;5093824;28;20180;-43
2024/03/25 11:28:03;;;;;;;1.70;1.10;;;23.70;1.00;;;;;;5093464;28;20490;-46
2024/03/25 11:30:29;;;;;;;2.10;1.47;;;23.70;1.00;;;;;;5094457;28;20430;-43
2024/03/25 11:32:56;;;;;;;1.80;1.20;;;23.90;1.00;;;;;;5093732;28;20967;-42
2024/03/25 11:35:21;;;;;;;2.80;1.70;;;24.90;1.00;;;;;;5075936;28;20575;-42
2024/03/25 11:37:50;;;;;;;2.37;1.90;;;26.10;1.00;;;;;;5076146;28;20184;-44
2024/03/25 11:40:15;;;;;;;3.03;2.07;;;27.20;1.00;;;;;;5094781;28;20196;-42
2024/03/25 11:42:45;;;;;;;3.20;1.70;;;28.00;1.00;;;;;;5076733;28;20437;-47
2024/03/25 11:45:19;;;;;;;2.67;1.43;;;28.90;1.00;;;;;;5095446;28;20187;-43
2024/03/25 11:47:46;;;;;;;3.00;1.70;;;29.30;1.00;;;;;;5075811;28;20422;-44
2024/03/25 11:50:14;;;;;;;2.43;1.80;;;28.90;1.00;;;;;;5059596;28;20422;-43
2024/03/25 11:52:40;;;;;;;2.70;2.00;;;28.80;1.00;;;;;;5095470;28;20402;-45
2024/03/25 11:55:08;;;;;;;2.50;1.57;;;29.30;1.00;;;;;;5095198;28;20414;-43
2024/03/25 11:57:37;;;;;;;1.90;1.70;;;29.80;1.00;;;;;;5093700;28;20856;-45
2024/03/25 12:00:05;;;;;;;3.77;1.90;;;30.50;1.00;;;;;;5059741;28;20421;-46
2024/03/25 12:02:31;;;;;;;2.90;2.10;;;31.30;1.00;;;;;;5093836;28;20607;-43
2024/03/25 12:04:57;;;;;;;3.03;2.37;;;31.60;1.00;;;;;;5075732;28;20686;-50
2024/03/25 12:07:22;;;;;;;1.90;1.47;;;32.00;1.00;;;;;;5094312;28;20414;-45
2024/03/25 12:12:33;;;;;;;2.83;2.33;;;33.00;1.00;;;;;;5093791;28;20612;-45
2024/03/25 12:14:59;;;;;;;2.30;1.77;;;32.60;1.00;;;;;;5078540;28;20412;-45
2024/03/25 12:17:25;;;;;;;2.70;2.13;;;31.90;1.00;;;;;;5096057;28;20431;-44
2024/03/25 12:20:10;;;;;;;2.80;1.93;;;31.80;1.00;;;;;;5077330;28;20365;-45
2024/03/25 12:22:36;;;;;;;3.43;2.00;;;31.70;1.00;;;;;;5096547;28;20523;-46
2024/03/25 12:25:06;;;;;;;2.30;1.73;;;31.90;1.00;;;;;;5096063;28;20772;-44
2024/03/25 12:27:33;;;;;;;4.03;1.83;;;32.10;1.00;;;;;;5097434;28;20402;-45
2024/03/25 12:30:01;;;;;;;2.60;1.90;;;32.40;1.00;;;;;;5080313;28;20397;-46
2024/03/25 12:32:42;;;;;;;2.20;1.60;;;32.90;1.00;;;;;;5095682;28;20836;-46
2024/03/25 12:35:18;;;;;;;2.90;1.40;;;33.40;1.00;;;;;;5095133;28;20430;-43
2024/03/25 12:37:45;;;;;;;1.90;1.60;;;33.80;1.00;;;;;;5095832;28;20648;-46
2024/03/25 12:40:25;;;;;;;2.50;1.87;;;33.80;1.00;;;;;;5094730;28;20522;-43
2024/03/25 12:42:54;;;;;;;3.87;1.70;;;34.20;1.00;;;;;;5096818;28;20418;-46
2024/03/25 12:45:23;;;;;;;2.13;1.33;;;34.60;1.00;;;;;;5077601;28;20418;-44
2024/03/25 12:47:49;;;;;;;2.63;2.10;;;34.70;1.00;;;;;;5096484;28;20516;-44
2024/03/25 12:50:15;;;;;;;1.67;1.57;;;34.60;1.00;;;;;;5096001;28;20393;-44
2024/03/25 12:52:41;;;;;;;3.27;1.60;;;34.60;1.00;;;;;;5095098;28;20792;-46
2024/03/25 12:55:06;;;;;;;2.33;1.90;;;34.60;1.00;;;;;;5078148;28;20451;-45
2024/03/25 12:57:32;;;;;;;3.53;1.90;;;34.00;1.00;;;;;;5094647;28;20172;-43
2024/03/25 12:59:57;;;;;;;2.80;1.80;;;33.80;1.00;;;;;;5095145;28;20241;-43
2024/03/25 13:02:24;;;;;;;2.90;1.60;;;33.80;1.00;;;;;;5093160;28;20191;-43
2024/03/25 13:04:49;;;;;;;2.17;1.60;;;33.80;1.00;;;;;;5095708;28;20168;-42
2024/03/25 13:07:15;;;;;;;2.27;1.70;;;34.30;1.00;;;;;;5095908;28;20757;-45